createdAt,value
2022-08-09T00:00:48.384Z,89.22
2022-08-09T00:01:55.248Z,89.52
2022-08-09T00:02:49.934Z,89.52
2022-08-09T00:04:10.861Z,89.46
2022-08-09T00:05:03.556Z,89.62
2022-08-09T00:06:15.336Z,89.12
2022-08-09T00:06:48.314Z,88.96
2022-08-09T00:07:47.307Z,89.16
2022-08-09T00:08:47.347Z,89.16
2022-08-09T00:09:47.316Z,89.26
2022-08-09T00:10:47.285Z,89.46
2022-08-09T00:12:03.830Z,89.56
2022-08-09T00:12:52.458Z,89.66
2022-08-09T00:13:47.247Z,89.76
2022-08-09T00:14:47.455Z,89.87
2022-08-09T00:16:00.062Z,89.76
2022-08-09T00:16:48.219Z,89.66
2022-08-09T00:18:05.315Z,89.76
2022-08-09T00:18:48.238Z,89.87
2022-08-09T00:19:48.002Z,90.07
2022-08-09T00:20:50.221Z,89.97
2022-08-09T00:21:56.079Z,89.87
2022-08-09T00:22:48.138Z,90.07
2022-08-09T00:23:56.009Z,89.76
2022-08-09T00:24:48.191Z,88.75
2022-08-09T00:25:51.827Z,89.06
2022-08-09T00:26:47.084Z,89.16
2022-08-09T00:27:48.100Z,89.16
2022-08-09T00:28:52.698Z,89.26
2022-08-09T00:30:16.380Z,89.46
2022-08-09T00:30:48.052Z,89.56
2022-08-09T00:31:59.594Z,89.46
2022-08-09T00:32:48.032Z,89.26
2022-08-09T00:33:51.206Z,89.36
2022-08-09T00:34:52.179Z,89.46
2022-08-09T00:35:48.053Z,89.06
2022-08-09T00:36:47.058Z,89.36
2022-08-09T00:37:46.973Z,89.46
2022-08-09T00:38:50.786Z,89.46
2022-08-09T00:40:12.917Z,89.56
2022-08-09T00:40:53.300Z,89.56
2022-08-09T00:44:11.608Z,89.66
2022-08-09T00:44:11.609Z,89.87
2022-08-09T00:44:13.011Z,89.66
2022-08-09T00:44:47.965Z,89.76
2022-08-09T00:45:50.652Z,89.76
2022-08-09T00:46:57.749Z,89.76
2022-08-09T00:47:47.875Z,89.76
2022-08-09T00:48:47.496Z,89.97
2022-08-09T00:49:54.399Z,90.07
2022-08-09T00:50:47.886Z,89.87
2022-08-09T00:51:55.900Z,89.91
2022-08-09T00:52:47.845Z,89.91
2022-08-09T00:53:46.828Z,89.81
2022-08-09T00:54:47.827Z,89.81
2022-08-09T00:56:05.002Z,89.91
2022-08-09T00:56:47.789Z,90.01
2022-08-09T00:57:49.769Z,90.11
2022-08-09T00:58:48.881Z,90.21
2022-08-09T00:59:52.380Z,90.11
2022-08-09T01:00:47.847Z,90.31
2022-08-09T01:01:46.759Z,90.21
2022-08-09T01:02:46.721Z,90.11
2022-08-09T01:03:46.828Z,90.11
2022-08-09T01:04:46.703Z,90.01
2022-08-09T01:05:54.349Z,89.91
2022-08-09T01:06:54.831Z,89.91
2022-08-09T01:08:00.308Z,89.91
2022-08-09T01:08:49.383Z,89.81
2022-08-09T01:09:46.839Z,89.70
2022-08-09T01:10:46.661Z,89.50
2022-08-09T01:11:55.670Z,89.50
2022-08-09T01:12:47.602Z,89.61
2022-08-09T01:13:58.675Z,89.70
2022-08-09T01:14:52.425Z,89.81
2022-08-09T01:15:52.034Z,89.61
2022-08-09T01:16:49.144Z,89.70
2022-08-09T01:17:46.561Z,89.70
2022-08-09T01:18:47.697Z,89.81
2022-08-09T01:19:57.274Z,89.70
2022-08-09T01:20:47.529Z,89.61
2022-08-09T01:21:51.356Z,89.40
2022-08-09T01:22:48.307Z,89.50
2022-08-09T01:24:03.632Z,89.50
2022-08-09T01:24:52.133Z,89.50
2022-08-09T01:25:48.988Z,89.50
2022-08-09T01:26:46.578Z,89.61
2022-08-09T01:27:47.452Z,89.75
2022-08-09T01:28:46.444Z,89.65
2022-08-09T01:29:55.507Z,89.61
2022-08-09T01:30:52.450Z,89.65
2022-08-09T01:32:29.525Z,89.75
2022-08-09T01:32:47.451Z,89.85
2022-08-09T01:33:46.413Z,90.01
2022-08-09T01:34:46.393Z,89.91
2022-08-09T01:35:46.380Z,89.85
2022-08-09T01:36:47.378Z,89.85
2022-08-09T01:38:08.174Z,89.95
2022-08-09T01:38:47.345Z,89.75
2022-08-09T01:39:46.423Z,89.75
2022-08-09T01:40:53.019Z,89.54
2022-08-09T01:41:55.980Z,89.65
2022-08-09T01:42:47.330Z,89.75
2022-08-09T01:43:52.011Z,89.75
2022-08-09T01:44:47.294Z,89.95
2022-08-09T01:45:47.733Z,89.75
2022-08-09T01:46:47.203Z,89.85
2022-08-09T01:47:46.291Z,89.95
2022-08-09T01:48:46.258Z,90.05
2022-08-09T01:49:48.736Z,89.75
2022-08-09T01:50:48.194Z,89.75
2022-08-09T01:51:53.343Z,89.65
2022-08-09T01:52:47.263Z,89.65
2022-08-09T01:53:46.233Z,89.85
2022-08-09T01:54:46.201Z,89.65
2022-08-09T01:55:46.215Z,89.85
2022-08-09T01:56:47.155Z,89.75
2022-08-09T01:57:50.803Z,89.85
2022-08-09T01:58:49.131Z,89.85
2022-08-09T01:59:51.485Z,89.95
2022-08-09T02:00:50.505Z,89.95
2022-08-09T02:01:59.641Z,90.16
2022-08-09T02:02:47.126Z,90.25
2022-08-09T02:03:46.170Z,90.16
2022-08-09T02:04:46.119Z,89.75
2022-08-09T02:05:53.571Z,89.45
2022-08-09T02:06:58.380Z,89.54
2022-08-09T02:08:38.948Z,89.65
2022-08-09T02:08:58.016Z,89.75
2022-08-09T02:09:47.051Z,89.65
2022-08-09T02:10:51.067Z,89.54
2022-08-09T02:11:46.029Z,89.65
2022-08-09T02:12:45.969Z,89.45
2022-08-09T02:14:06.376Z,89.45
2022-08-09T02:14:46.948Z,89.65
2022-08-09T02:15:49.253Z,89.34
2022-08-09T02:16:59.165Z,89.54
2022-08-09T02:18:00.127Z,89.89
2022-08-09T02:18:47.966Z,90.09
2022-08-09T02:19:45.920Z,89.99
2022-08-09T02:20:45.936Z,89.89
2022-08-09T02:21:46.501Z,89.99
2022-08-09T02:22:46.527Z,89.99
2022-08-09T02:23:45.871Z,90.09
2022-08-09T02:24:51.662Z,90.09
2022-08-09T02:25:49.618Z,90.20
2022-08-09T02:26:46.824Z,90.20
2022-08-09T02:28:00.192Z,90.30
2022-08-09T02:28:46.805Z,89.59
2022-08-09T02:29:45.823Z,89.48
2022-08-09T02:30:46.399Z,89.69
2022-08-09T02:31:45.769Z,89.79
2022-08-09T02:32:45.777Z,90.09
2022-08-09T02:34:07.448Z,90.09
2022-08-09T02:34:51.967Z,89.28
2022-08-09T02:36:03.315Z,89.08
2022-08-09T02:36:46.745Z,89.18
2022-08-09T02:37:46.730Z,89.18
2022-08-09T02:38:47.738Z,89.28
2022-08-09T02:39:49.799Z,89.39
2022-08-09T02:40:46.802Z,89.48
2022-08-09T02:41:45.698Z,89.59
2022-08-09T02:42:45.648Z,89.69
2022-08-09T02:43:54.710Z,89.79
2022-08-09T02:44:46.636Z,89.99
2022-08-09T02:45:45.622Z,90.09
2022-08-09T02:46:45.646Z,89.99
2022-08-09T02:47:59.031Z,90.20
2022-08-09T02:48:46.576Z,90.20
2022-08-09T02:49:45.589Z,90.09
2022-08-09T02:50:46.599Z,89.79
2022-08-09T02:51:45.559Z,89.79
2022-08-09T02:52:45.541Z,89.79
2022-08-09T02:54:00.470Z,89.89
2022-08-09T02:54:54.305Z,89.99
2022-08-09T02:55:58.411Z,90.09
2022-08-09T02:56:51.295Z,89.89
2022-08-09T02:58:00.561Z,89.69
2022-08-09T02:58:46.461Z,89.28
2022-08-09T03:00:20.801Z,89.59
2022-08-09T03:00:58.219Z,89.89
2022-08-09T03:02:06.088Z,89.99
2022-08-09T03:02:59.868Z,89.94
2022-08-09T03:04:17.476Z,89.83
2022-08-09T03:04:46.460Z,89.83
2022-08-09T03:05:45.438Z,89.63
2022-08-09T03:06:45.527Z,89.83
2022-08-09T03:07:55.060Z,89.94
2022-08-09T03:08:46.391Z,90.24
2022-08-09T03:09:54.508Z,90.44
2022-08-09T03:10:46.385Z,90.30
2022-08-09T03:12:05.837Z,90.44
2022-08-09T03:12:49.370Z,90.54
2022-08-09T03:14:01.455Z,90.34
2022-08-09T03:14:46.368Z,90.54
2022-08-09T03:16:06.479Z,90.54
2022-08-09T03:16:48.040Z,90.14
2022-08-09T03:17:45.274Z,89.73
2022-08-09T03:18:46.259Z,89.63
2022-08-09T03:19:58.093Z,88.21
2022-08-09T03:20:46.245Z,88.82
2022-08-09T03:21:50.763Z,89.53
2022-08-09T03:22:46.431Z,89.73
2022-08-09T03:24:04.406Z,89.83
2022-08-09T03:24:52.414Z,90.03
2022-08-09T03:25:57.029Z,90.24
2022-08-09T03:26:47.201Z,90.44
2022-08-09T03:27:45.906Z,90.54
2022-08-09T03:28:45.159Z,90.64
2022-08-09T03:29:58.026Z,90.64
2022-08-09T03:30:46.173Z,90.34
2022-08-09T03:31:59.694Z,90.24
2022-08-09T03:32:46.160Z,90.14
2022-08-09T03:33:53.453Z,90.24
2022-08-09T03:34:46.099Z,90.24
2022-08-09T03:36:12.258Z,90.34
2022-08-09T03:36:58.133Z,90.34
2022-08-09T03:37:54.859Z,90.34
2022-08-09T03:38:46.058Z,90.44
2022-08-09T03:39:48.556Z,90.64
2022-08-09T03:40:46.030Z,90.75
2022-08-09T03:41:48.597Z,90.54
2022-08-09T03:42:45.014Z,90.44
2022-08-09T03:44:03.473Z,90.34
2022-08-09T03:44:45.973Z,90.34
2022-08-09T03:46:04.376Z,90.54
2022-08-09T03:46:46.465Z,90.54
2022-08-09T03:47:46.623Z,90.64
2022-08-09T03:48:51.831Z,89.53
2022-08-09T03:49:58.361Z,88.11
2022-08-09T03:50:45.904Z,88.51
2022-08-09T03:51:56.697Z,89.12
2022-08-09T03:52:46.011Z,89.37
2022-08-09T03:53:44.885Z,89.63
2022-08-09T03:54:44.895Z,89.87
2022-08-09T03:55:44.879Z,89.87
2022-08-09T03:56:44.845Z,90.18
2022-08-09T03:57:53.537Z,90.28
2022-08-09T03:58:46.020Z,90.28
2022-08-09T03:59:54.587Z,90.18
2022-08-09T04:00:45.834Z,90.28
2022-08-09T04:01:44.778Z,90.38
2022-08-09T04:02:44.966Z,90.38
2022-08-09T04:03:46.430Z,90.34
2022-08-09T04:04:47.836Z,90.38
2022-08-09T04:05:45.753Z,90.34
2022-08-09T04:06:49.130Z,90.38
2022-08-09T04:07:52.662Z,90.34
2022-08-09T04:08:46.748Z,90.54
2022-08-09T04:09:48.987Z,90.79
2022-08-09T04:10:48.016Z,90.75
2022-08-09T04:11:44.691Z,90.84
2022-08-09T04:12:45.161Z,91.05
2022-08-09T04:14:37.742Z,91.15
2022-08-09T04:15:00.665Z,91.15
2022-08-09T04:16:19.902Z,90.75
2022-08-09T04:16:45.630Z,90.79
2022-08-09T04:17:44.635Z,90.75
2022-08-09T04:18:45.896Z,90.69
2022-08-09T04:19:51.577Z,90.64
2022-08-09T04:20:45.630Z,90.69
2022-08-09T04:21:44.579Z,90.69
2022-08-09T04:22:44.610Z,90.89
2022-08-09T04:23:53.794Z,90.84
2022-08-09T04:24:45.545Z,90.84
2022-08-09T04:25:44.601Z,90.95
2022-08-09T04:26:45.521Z,90.89
2022-08-09T04:27:46.721Z,90.84
2022-08-09T04:28:46.808Z,90.95
2022-08-09T04:29:49.830Z,91.15
2022-08-09T04:30:45.510Z,91.25
2022-08-09T04:31:47.320Z,91.25
2022-08-09T04:32:46.098Z,91.15
2022-08-09T04:33:51.684Z,91.15
2022-08-09T04:34:54.118Z,91.05
2022-08-09T04:35:45.425Z,91.15
2022-08-09T04:36:50.310Z,91.15
2022-08-09T04:37:46.755Z,91.15
2022-08-09T04:38:44.397Z,91.15
2022-08-09T04:39:44.425Z,91.05
2022-08-09T04:40:45.379Z,91.05
2022-08-09T04:41:44.363Z,91.35
2022-08-09T04:42:44.386Z,91.55
2022-08-09T04:43:46.563Z,91.75
2022-08-09T04:44:49.461Z,91.75
2022-08-09T04:45:53.643Z,91.75
2022-08-09T04:46:58.988Z,91.86
2022-08-09T04:48:01.075Z,91.96
2022-08-09T04:48:50.384Z,91.96
2022-08-09T04:49:54.242Z,91.96
2022-08-09T04:50:45.271Z,91.96
2022-08-09T04:51:45.902Z,92.06
2022-08-09T04:52:44.259Z,92.16
2022-08-09T04:53:44.245Z,92.06
2022-08-09T04:54:44.258Z,92.06
2022-08-09T04:55:58.652Z,91.96
2022-08-09T04:56:45.201Z,91.66
2022-08-09T04:57:59.045Z,91.15
2022-08-09T04:58:45.212Z,90.95
2022-08-09T04:59:44.182Z,90.84
2022-08-09T05:00:44.202Z,90.84
2022-08-09T05:01:44.140Z,90.95
2022-08-09T05:02:44.135Z,90.84
2022-08-09T05:03:44.199Z,90.89
2022-08-09T05:04:44.125Z,90.99
2022-08-09T05:05:52.754Z,91.19
2022-08-09T05:06:45.160Z,91.30
2022-08-09T05:07:46.422Z,91.66
2022-08-09T05:08:47.739Z,91.80
2022-08-09T05:09:49.758Z,91.75
2022-08-09T05:10:45.068Z,91.60
2022-08-09T05:11:44.074Z,91.70
2022-08-09T05:12:44.030Z,91.90
2022-08-09T05:13:44.004Z,92.10
2022-08-09T05:14:43.993Z,92.31
2022-08-09T05:15:48.164Z,92.51
2022-08-09T05:16:59.130Z,92.61
2022-08-09T05:18:55.272Z,92.71
2022-08-09T05:18:58.028Z,92.82
2022-08-09T05:19:46.311Z,92.91
2022-08-09T05:20:43.957Z,92.91
2022-08-09T05:21:47.368Z,93.02
2022-08-09T05:23:53.935Z,93.22
2022-08-09T05:23:54.697Z,93.32
2022-08-09T05:24:44.908Z,93.52
2022-08-09T05:25:43.889Z,93.52
2022-08-09T05:26:46.081Z,93.73
2022-08-09T05:27:46.505Z,93.93
2022-08-09T05:28:43.869Z,94.13
2022-08-09T05:29:43.839Z,94.34
2022-08-09T05:30:48.006Z,94.43
2022-08-09T05:31:46.699Z,94.64
2022-08-09T05:32:44.947Z,94.64
2022-08-09T05:33:44.813Z,94.74
2022-08-09T05:34:45.731Z,94.74
2022-08-09T05:35:49.900Z,94.84
2022-08-09T05:36:47.066Z,94.94
2022-08-09T05:37:47.783Z,95.04
2022-08-09T05:38:46.127Z,95.14
2022-08-09T05:39:44.623Z,95.25
2022-08-09T05:40:46.553Z,95.04
2022-08-09T05:41:44.722Z,95.14
2022-08-09T05:42:43.773Z,95.35
2022-08-09T05:43:44.978Z,95.45
2022-08-09T05:44:43.692Z,95.45
2022-08-09T05:45:55.918Z,95.55
2022-08-09T05:46:44.664Z,95.45
2022-08-09T05:47:52.387Z,95.45
2022-08-09T05:48:44.633Z,95.45
2022-08-09T05:50:26.696Z,95.45
2022-08-09T05:50:50.952Z,95.55
2022-08-09T05:51:46.429Z,95.86
2022-08-09T05:52:43.617Z,95.86
2022-08-09T05:53:56.937Z,95.75
2022-08-09T05:54:44.575Z,95.95
2022-08-09T05:55:43.564Z,96.36
2022-08-09T05:56:55.134Z,96.77
2022-08-09T05:57:55.742Z,96.97
2022-08-09T05:58:44.528Z,96.97
2022-08-09T05:59:43.515Z,96.97
2022-08-09T06:00:43.514Z,96.87
2022-08-09T06:01:43.689Z,96.77
2022-08-09T06:02:46.615Z,96.77
2022-08-09T06:03:43.893Z,96.87
2022-08-09T06:04:46.038Z,96.82
2022-08-09T06:05:57.122Z,96.82
2022-08-09T06:06:49.607Z,97.02
2022-08-09T06:07:44.440Z,97.33
2022-08-09T06:08:44.469Z,97.33
2022-08-09T06:10:02.303Z,97.43
2022-08-09T06:10:44.401Z,97.94
2022-08-09T06:11:57.205Z,98.03
2022-08-09T06:12:44.402Z,98.14
2022-08-09T06:13:44.420Z,98.44
2022-08-09T06:14:43.369Z,98.85
2022-08-09T06:15:43.373Z,99.30
2022-08-09T06:16:43.355Z,99.41
2022-08-09T06:17:44.340Z,99.51
2022-08-09T06:18:43.408Z,99.51
2022-08-09T06:19:43.409Z,99.41
2022-08-09T06:20:43.313Z,99.10
2022-08-09T06:21:51.433Z,99.01
2022-08-09T06:22:45.739Z,98.96
2022-08-09T06:23:57.901Z,99.26
2022-08-09T06:24:44.324Z,99.26
2022-08-09T06:25:43.423Z,99.05
2022-08-09T06:26:43.627Z,98.75
2022-08-09T06:27:51.537Z,98.65
2022-08-09T06:28:44.216Z,98.61
2022-08-09T06:29:47.881Z,98.30
2022-08-09T06:30:44.184Z,98.20
2022-08-09T06:32:24.662Z,98.20
2022-08-09T06:32:59.072Z,98.00
2022-08-09T06:33:44.450Z,98.00
2022-08-09T06:34:44.125Z,98.00
2022-08-09T06:35:57.433Z,98.10
2022-08-09T06:36:44.168Z,97.80
2022-08-09T06:37:53.052Z,97.29
2022-08-09T06:38:50.011Z,97.29
2022-08-09T06:39:58.077Z,97.45
2022-08-09T06:40:44.149Z,97.55
2022-08-09T06:42:08.625Z,97.65
2022-08-09T06:42:44.563Z,97.75
2022-08-09T06:43:43.045Z,97.75
2022-08-09T06:44:43.472Z,97.65
2022-08-09T06:46:07.785Z,97.55
2022-08-09T06:46:44.010Z,97.50
2022-08-09T06:47:43.000Z,97.50
2022-08-09T06:48:43.202Z,97.40
2022-08-09T06:50:11.475Z,97.50
2022-08-09T06:50:44.020Z,97.60
2022-08-09T06:51:42.971Z,97.60
2022-08-09T06:52:42.965Z,97.20
2022-08-09T06:53:42.949Z,97.00
2022-08-09T06:54:42.945Z,96.89
2022-08-09T06:55:42.980Z,97.00
2022-08-09T06:56:45.507Z,96.69
2022-08-09T06:58:03.503Z,96.69
2022-08-09T07:00:50.660Z,96.19
2022-08-09T07:00:50.845Z,96.39
2022-08-09T07:00:55.798Z,96.49
2022-08-09T07:01:54.486Z,95.94
2022-08-09T07:02:44.051Z,95.74
2022-08-09T07:03:52.538Z,95.74
2022-08-09T07:04:43.821Z,95.34
2022-08-09T07:05:58.304Z,94.73
2022-08-09T07:06:43.799Z,94.23
2022-08-09T07:07:59.748Z,93.82
2022-08-09T07:08:43.775Z,93.62
2022-08-09T07:09:55.343Z,92.50
2022-08-09T07:10:43.816Z,92.30
2022-08-09T07:11:52.382Z,92.10
2022-08-09T07:12:44.063Z,91.86
2022-08-09T07:13:44.969Z,92.06
2022-08-09T07:14:43.724Z,91.96
2022-08-09T07:16:35.028Z,91.86
2022-08-09T07:16:48.697Z,91.86
2022-08-09T07:17:52.577Z,91.66
2022-08-09T07:18:43.675Z,91.66
2022-08-09T07:19:42.666Z,91.66
2022-08-09T07:20:44.434Z,91.55
2022-08-09T07:21:55.789Z,91.86
2022-08-09T07:22:46.384Z,91.86
2022-08-09T07:23:56.295Z,91.96
2022-08-09T07:24:44.556Z,92.06
2022-08-09T07:25:43.655Z,92.26
2022-08-09T07:26:42.590Z,92.26
2022-08-09T07:27:53.178Z,92.46
2022-08-09T07:29:08.156Z,92.57
2022-08-09T07:29:43.552Z,92.46
2022-08-09T07:30:42.546Z,92.06
2022-08-09T07:31:45.475Z,91.35
2022-08-09T07:32:43.644Z,91.31
2022-08-09T07:33:52.900Z,91.41
2022-08-09T07:34:43.502Z,91.21
2022-08-09T07:35:53.291Z,90.91
2022-08-09T07:36:43.489Z,90.91
2022-08-09T07:37:44.608Z,90.61
2022-08-09T07:38:48.154Z,90.70
2022-08-09T07:39:43.562Z,91.31
2022-08-09T07:41:08.064Z,91.41
2022-08-09T07:41:43.437Z,91.41
2022-08-09T07:42:42.415Z,91.61
2022-08-09T07:43:55.728Z,92.12
2022-08-09T07:44:50.831Z,92.42
2022-08-09T07:45:43.386Z,92.52
2022-08-09T07:46:42.376Z,92.72
2022-08-09T07:48:00.656Z,92.82
2022-08-09T07:48:43.467Z,93.23
2022-08-09T07:50:04.345Z,93.33
2022-08-09T07:50:43.403Z,93.13
2022-08-09T07:52:06.048Z,93.02
2022-08-09T07:52:43.349Z,92.72
2022-08-09T07:54:04.291Z,91.31
2022-08-09T07:54:43.346Z,90.91
2022-08-09T07:56:03.583Z,90.46
2022-08-09T07:56:48.926Z,90.46
2022-08-09T07:57:47.078Z,90.66
2022-08-09T07:58:42.251Z,91.06
2022-08-09T07:59:45.826Z,90.46
2022-08-09T08:00:56.212Z,90.26
2022-08-09T08:01:43.308Z,90.26
2022-08-09T08:02:43.460Z,89.86
2022-08-09T08:03:42.569Z,89.25
2022-08-09T08:04:42.179Z,89.65
2022-08-09T08:05:54.443Z,90.26
2022-08-09T08:06:56.000Z,89.75
2022-08-09T08:08:42.765Z,89.75
2022-08-09T08:09:00.719Z,89.86
2022-08-09T08:09:51.580Z,89.55
2022-08-09T08:10:48.710Z,89.75
2022-08-09T08:12:10.226Z,90.16
2022-08-09T08:12:45.014Z,89.25
2022-08-09T08:13:56.227Z,88.04
2022-08-09T08:14:43.145Z,88.45
2022-08-09T08:15:42.070Z,88.50
2022-08-09T08:17:00.778Z,88.90
2022-08-09T08:17:54.229Z,89.11
2022-08-09T08:18:43.248Z,89.41
2022-08-09T08:19:42.022Z,88.30
2022-08-09T08:20:42.857Z,88.30
2022-08-09T08:21:42.040Z,88.10
2022-08-09T08:22:42.992Z,87.60
2022-08-09T08:23:41.983Z,88.20
2022-08-09T08:24:45.955Z,88.81
2022-08-09T08:25:46.173Z,88.81
2022-08-09T08:26:55.711Z,88.60
2022-08-09T08:27:43.311Z,87.40
2022-08-09T08:28:41.936Z,85.78
2022-08-09T08:29:48.605Z,86.29
2022-08-09T08:30:42.955Z,86.69
2022-08-09T08:32:03.135Z,86.99
2022-08-09T08:32:53.973Z,87.60
2022-08-09T08:33:52.207Z,88.30
2022-08-09T08:34:42.864Z,88.26
2022-08-09T08:35:59.531Z,87.55
2022-08-09T08:36:42.856Z,85.03
2022-08-09T08:37:59.533Z,83.22
2022-08-09T08:38:42.817Z,84.13
2022-08-09T08:39:44.504Z,84.53
2022-08-09T08:40:41.811Z,85.44
2022-08-09T08:41:51.817Z,85.74
2022-08-09T08:42:43.316Z,85.30
2022-08-09T08:43:41.768Z,86.00
2022-08-09T08:44:41.749Z,86.30
2022-08-09T08:45:50.730Z,84.09
2022-08-09T08:47:03.172Z,84.19
2022-08-09T08:47:44.931Z,84.80
2022-08-09T08:48:51.095Z,85.30
2022-08-09T08:49:47.888Z,86.21
2022-08-09T08:50:45.365Z,86.51
2022-08-09T08:52:00.008Z,86.00
2022-08-09T08:52:59.731Z,85.90
2022-08-09T08:54:03.176Z,87.01
2022-08-09T08:54:42.654Z,83.48
2022-08-09T08:55:41.763Z,83.69
2022-08-09T08:56:41.631Z,84.09
2022-08-09T08:57:41.694Z,83.59
2022-08-09T08:58:44.485Z,83.75
2022-08-09T08:59:46.841Z,84.75
2022-08-09T09:00:42.591Z,84.85
2022-08-09T09:01:52.270Z,85.56
2022-08-09T09:02:42.663Z,85.76
2022-08-09T09:03:41.630Z,86.16
2022-08-09T09:04:52.549Z,85.76
2022-08-09T09:05:58.197Z,84.85
2022-08-09T09:06:42.514Z,83.65
2022-08-09T09:07:42.771Z,83.45
2022-08-09T09:08:42.164Z,83.04
2022-08-09T09:09:59.683Z,83.04
2022-08-09T09:10:42.466Z,82.54
2022-08-09T09:11:41.504Z,81.53
2022-08-09T09:12:41.457Z,81.93
2022-08-09T09:13:50.188Z,82.50
2022-08-09T09:14:42.427Z,82.90
2022-08-09T09:15:41.428Z,82.40
2022-08-09T09:16:42.407Z,80.89
2022-08-09T09:17:49.490Z,80.39
2022-08-09T09:18:47.286Z,81.90
2022-08-09T09:19:42.394Z,82.40
2022-08-09T09:20:41.372Z,82.90
2022-08-09T09:21:43.480Z,80.75
2022-08-09T09:22:42.359Z,82.26
2022-08-09T09:23:41.397Z,80.05
2022-08-09T09:24:43.620Z,80.45
2022-08-09T09:26:04.937Z,82.66
2022-08-09T09:26:44.722Z,79.54
2022-08-09T09:28:05.425Z,80.15
2022-08-09T09:29:04.233Z,81.15
2022-08-09T09:30:42.584Z,78.54
2022-08-09T09:32:01.815Z,80.25
2022-08-09T09:32:42.275Z,79.24
2022-08-09T09:33:44.441Z,76.39
2022-08-09T09:34:41.225Z,77.20
2022-08-09T09:35:44.990Z,79.71
2022-08-09T09:36:46.673Z,79.30
2022-08-09T09:37:42.210Z,81.01
2022-08-09T09:38:41.237Z,80.91
2022-08-09T09:39:55.093Z,78.80
2022-08-09T09:40:42.155Z,80.11
2022-08-09T09:41:49.591Z,79.71
2022-08-09T09:42:42.980Z,76.09
2022-08-09T09:44:13.445Z,76.39
2022-08-09T09:44:42.118Z,78.86
2022-08-09T09:45:56.957Z,80.88
2022-08-09T09:46:43.523Z,78.06
2022-08-09T09:47:48.050Z,79.57
2022-08-09T09:48:42.108Z,76.45
2022-08-09T09:50:06.986Z,75.55
2022-08-09T09:50:49.216Z,75.95
2022-08-09T09:51:42.043Z,73.64
2022-08-09T09:52:41.109Z,74.74
2022-08-09T09:53:52.004Z,74.65
2022-08-09T09:54:41.999Z,77.62
2022-08-09T09:55:42.009Z,77.22
2022-08-09T09:58:01.486Z,78.42
2022-08-09T09:58:03.009Z,76.92
2022-08-09T09:58:41.958Z,78.42
2022-08-09T09:59:40.960Z,79.63
2022-08-09T10:00:41.012Z,79.33
2022-08-09T10:01:41.932Z,74.81
2022-08-09T10:02:40.944Z,75.31
2022-08-09T10:03:42.769Z,74.61
2022-08-09T10:04:40.913Z,71.80
2022-08-09T10:06:03.757Z,72.30
2022-08-09T10:06:42.846Z,73.17
2022-08-09T10:08:10.795Z,71.66
2022-08-09T10:08:42.410Z,68.62
2022-08-09T10:09:45.479Z,68.72
2022-08-09T10:10:41.874Z,70.29
2022-08-09T10:11:59.194Z,72.40
2022-08-09T10:12:43.909Z,71.50
2022-08-09T10:13:44.995Z,72.30
2022-08-09T10:14:47.868Z,75.10
2022-08-09T10:16:08.830Z,72.09
2022-08-09T10:16:57.752Z,74.51
2022-08-09T10:17:55.784Z,71.90
2022-08-09T10:18:41.744Z,72.00
2022-08-09T10:19:41.738Z,72.47
2022-08-09T10:20:45.179Z,70.86
2022-08-09T10:21:40.726Z,70.96
2022-08-09T10:22:41.102Z,72.47
2022-08-09T10:23:40.695Z,73.16
2022-08-09T10:24:40.676Z,72.16
2022-08-09T10:26:06.034Z,71.26
2022-08-09T10:26:41.666Z,72.73
2022-08-09T10:27:45.125Z,72.93
2022-08-09T10:28:41.686Z,70.53
2022-08-09T10:30:57.868Z,71.93
2022-08-09T10:32:27.934Z,71.93
2022-08-09T10:32:42.817Z,75.04
2022-08-09T10:34:08.481Z,72.33
2022-08-09T10:34:41.590Z,71.33
2022-08-09T10:35:40.588Z,72.39
2022-08-09T10:36:42.261Z,71.30
2022-08-09T10:37:40.552Z,72.60
2022-08-09T10:38:56.327Z,75.70
2022-08-09T10:39:49.374Z,77.80
2022-08-09T10:40:41.542Z,76.50
2022-08-09T10:41:40.490Z,76.34
2022-08-09T10:42:40.471Z,78.24
2022-08-09T10:43:49.758Z,76.84
2022-08-09T10:44:41.454Z,79.24
2022-08-09T10:45:42.471Z,79.04
2022-08-09T10:46:54.568Z,77.74
2022-08-09T10:48:19.496Z,78.84
2022-08-09T10:48:41.434Z,78.94
2022-08-09T10:49:50.034Z,78.54
2022-08-09T10:50:41.413Z,78.94
2022-08-09T10:51:40.758Z,81.55
2022-08-09T10:52:42.863Z,83.65
2022-08-09T10:53:46.680Z,83.05
2022-08-09T10:54:41.384Z,75.84
2022-08-09T10:55:55.337Z,78.64
2022-08-09T10:56:41.350Z,78.24
2022-08-09T10:57:41.768Z,84.11
2022-08-09T10:58:40.305Z,82.81
2022-08-09T10:59:43.123Z,82.61
2022-08-09T11:00:41.785Z,81.51
2022-08-09T11:03:11.242Z,79.60
2022-08-09T11:03:13.437Z,79.41
2022-08-09T11:03:50.941Z,79.50
2022-08-09T11:04:41.237Z,77.20
2022-08-09T11:06:00.560Z,78.70
2022-08-09T11:06:44.692Z,78.00
2022-08-09T11:07:57.447Z,77.60
2022-08-09T11:08:47.417Z,78.97
2022-08-09T11:09:48.129Z,79.97
2022-08-09T11:10:41.223Z,81.57
2022-08-09T11:11:43.673Z,77.86
2022-08-09T11:12:41.148Z,77.56
2022-08-09T11:13:53.826Z,77.47
2022-08-09T11:14:41.130Z,80.27
2022-08-09T11:15:51.140Z,74.06
2022-08-09T11:16:41.571Z,71.76
2022-08-09T11:17:41.712Z,74.43
2022-08-09T11:18:40.090Z,73.33
2022-08-09T11:20:11.134Z,72.92
2022-08-09T11:20:41.101Z,76.73
2022-08-09T11:21:41.386Z,78.13
2022-08-09T11:22:40.102Z,78.63
2022-08-09T11:23:40.072Z,79.23
2022-08-09T11:24:40.032Z,79.93
2022-08-09T11:25:47.840Z,72.72
2022-08-09T11:26:52.215Z,73.93
2022-08-09T11:28:02.902Z,75.39
2022-08-09T11:28:56.170Z,76.09
2022-08-09T11:30:05.703Z,75.05
2022-08-09T11:30:47.843Z,74.36
2022-08-09T11:31:43.390Z,75.05
2022-08-09T11:32:40.948Z,79.46
2022-08-09T11:33:39.968Z,79.46
2022-08-09T11:34:39.917Z,73.96
2022-08-09T11:35:49.810Z,75.96
2022-08-09T11:36:40.897Z,76.35
2022-08-09T11:37:41.418Z,77.56
2022-08-09T11:38:41.421Z,73.75
2022-08-09T11:39:39.905Z,76.76
2022-08-09T11:40:39.852Z,76.72
2022-08-09T11:41:40.286Z,76.72
2022-08-09T11:42:39.846Z,74.52
2022-08-09T11:43:39.868Z,73.42
2022-08-09T11:44:39.830Z,75.96
2022-08-09T11:45:43.204Z,76.86
2022-08-09T11:46:39.808Z,80.26
2022-08-09T11:47:39.788Z,74.16
2022-08-09T11:48:39.805Z,75.32
2022-08-09T11:49:58.238Z,78.22
2022-08-09T11:50:56.581Z,74.72
2022-08-09T11:53:01.111Z,78.72
2022-08-09T11:53:03.081Z,72.02
2022-08-09T11:54:01.435Z,73.19
2022-08-09T11:54:40.766Z,75.68
2022-08-09T11:55:53.675Z,73.79
2022-08-09T11:56:42.178Z,75.09
2022-08-09T11:57:48.042Z,74.68
2022-08-09T11:58:40.684Z,75.78
2022-08-09T11:59:40.653Z,78.28
2022-08-09T12:00:39.663Z,77.28
2022-08-09T12:02:35.250Z,75.98
2022-08-09T12:02:40.992Z,74.12
2022-08-09T12:03:57.103Z,73.42
2022-08-09T12:04:40.636Z,75.78
2022-08-09T12:05:47.045Z,73.72
2022-08-09T12:06:40.607Z,74.68
2022-08-09T12:07:42.400Z,75.98
2022-08-09T12:08:39.566Z,72.99
2022-08-09T12:09:40.556Z,77.18
2022-08-09T12:10:40.539Z,76.78
2022-08-09T12:12:02.174Z,77.58
2022-08-09T12:12:40.735Z,78.38
2022-08-09T12:14:09.346Z,76.18
2022-08-09T12:15:07.232Z,75.98
2022-08-09T12:15:48.587Z,73.69
2022-08-09T12:16:40.470Z,75.98
2022-08-09T12:17:43.337Z,76.48
2022-08-09T12:18:40.477Z,72.99
2022-08-09T12:19:40.187Z,76.58
2022-08-09T12:20:39.453Z,72.39
2022-08-09T12:21:48.532Z,70.56
2022-08-09T12:22:40.401Z,69.16
2022-08-09T12:24:02.440Z,72.65
2022-08-09T12:24:40.383Z,71.86
2022-08-09T12:25:50.059Z,69.56
2022-08-09T12:26:40.374Z,72.16
2022-08-09T12:28:58.725Z,73.25
2022-08-09T12:29:10.809Z,72.55
2022-08-09T12:29:44.506Z,72.85
2022-08-09T12:30:40.448Z,68.56
2022-08-09T12:32:02.524Z,68.66
2022-08-09T12:32:40.903Z,69.62
2022-08-09T12:33:58.809Z,72.52
2022-08-09T12:34:40.327Z,71.12
2022-08-09T12:35:40.925Z,72.72
2022-08-09T12:36:39.260Z,73.61
2022-08-09T12:37:44.161Z,73.52
2022-08-09T12:38:40.247Z,72.92
2022-08-09T12:39:39.278Z,75.81
2022-08-09T12:40:39.278Z,70.32
2022-08-09T12:41:40.457Z,72.32
2022-08-09T12:42:39.204Z,69.02
2022-08-09T12:44:06.705Z,72.22
2022-08-09T12:44:40.180Z,70.92
2022-08-09T12:45:40.268Z,69.69
2022-08-09T12:46:39.147Z,70.49
2022-08-09T12:47:44.287Z,72.88
2022-08-09T12:48:40.118Z,74.08
2022-08-09T12:49:39.130Z,75.37
2022-08-09T12:50:41.269Z,72.88
2022-08-09T12:52:01.181Z,72.28
2022-08-09T12:52:42.749Z,69.69
2022-08-09T12:53:40.687Z,72.28
2022-08-09T12:54:39.073Z,70.09